Time;durP1;ratioP1;P1;durP2;ratioP2;P2;SDS_P1;SDS_P2;PMS_P1;PMS_P2;Temp;Humidity;BMP_temperature;BMP_pressure;BME280_temperature;BME280_humidity;BME280_pressure;Samples;Min_cycle;Max_cycle;Signal;HPM_P1;HPM_P2
2021/12/23 00:02:03;;;;;;;18.10;11.07;;;;;;;-1.98;69.82;99545.31;4990193;28;20038;-74
2021/12/23 00:04:29;;;;;;;19.88;12.27;;;;;;;-1.98;70.10;99547.91;4990818;28;20398;-75
2021/12/23 00:06:54;;;;;;;22.77;12.35;;;;;;;-2.02;70.29;99543.59;4992379;28;20039;-75
2021/12/23 00:09:22;;;;;;;20.42;11.13;;;;;;;-2.02;70.57;99541.00;4987305;28;20042;-75
2021/12/23 00:11:47;;;;;;;25.63;11.93;;;;;;;-1.99;70.71;99543.59;4971429;28;20034;-74
2021/12/23 00:14:13;;;;;;;23.02;12.80;;;;;;;-1.93;70.78;99542.72;4989131;28;20065;-75
2021/12/23 00:16:43;;;;;;;17.60;10.50;;;;;;;-1.85;70.76;99536.66;4990879;28;20042;-75
2021/12/23 00:24:38;;;;;;;19.10;11.07;;;;;;;-1.83;71.17;99523.75;4998567;28;20735;-76
2021/12/23 00:27:04;;;;;;;18.52;10.45;;;;;;;-1.83;71.07;99519.44;4993364;28;20043;-76
2021/12/23 00:29:29;;;;;;;24.50;13.57;;;;;;;-1.86;71.30;99527.19;4991737;28;20030;-75
2021/12/23 00:31:54;;;;;;;20.05;12.20;;;;;;;-1.85;71.11;99525.47;4992078;28;20058;-73
2021/12/23 00:34:20;;;;;;;18.80;11.60;;;;;;;-1.87;71.60;99519.44;4989474;28;20034;-74
2021/12/23 00:36:46;;;;;;;18.58;13.60;;;;;;;-1.82;71.67;99526.34;4989545;28;20062;-74
2021/12/23 00:39:13;;;;;;;21.80;12.60;;;;;;;-1.79;71.71;99526.31;4989903;28;20145;-74
2021/12/23 00:41:41;;;;;;;20.77;11.45;;;;;;;-1.74;71.43;99518.56;4990134;28;20035;-73
2021/12/23 00:44:07;;;;;;;19.65;10.70;;;;;;;-1.71;71.49;99508.19;4989753;28;20041;-74
2021/12/23 00:46:32;;;;;;;21.55;11.02;;;;;;;-1.68;71.03;99500.44;4990568;28;20034;-75
2021/12/23 00:48:58;;;;;;;24.58;12.18;;;;;;;-1.64;71.60;99488.38;5006678;28;20043;-73
2021/12/23 00:51:23;;;;;;;21.05;12.63;;;;;;;-1.67;71.25;99481.50;5008587;28;20034;-76
2021/12/23 00:53:52;;;;;;;20.63;13.05;;;;;;;-1.67;71.28;99473.72;4980448;28;20038;-74
2021/12/23 00:56:17;;;;;;;16.38;10.05;;;;;;;-1.65;71.85;99472.00;4992131;28;20486;-73
2021/12/23 00:58:42;;;;;;;18.88;12.18;;;;;;;-1.60;71.30;99472.84;4991595;28;20034;-75
2021/12/23 01:01:08;;;;;;;21.67;11.77;;;;;;;-1.55;71.01;99470.19;4990827;28;20474;-75
2021/12/23 01:03:33;;;;;;;20.50;11.55;;;;;;;-1.55;71.10;99476.25;4991167;28;20045;-75
2021/12/23 01:05:59;;;;;;;20.70;10.45;;;;;;;-1.53;71.72;99483.97;4990676;28;20367;-74
2021/12/23 01:08:24;;;;;;;14.68;9.90;;;;;;;-1.52;71.15;99484.00;4990955;28;20038;-75
2021/12/23 01:10:56;;;;;;;16.88;10.70;;;;;;;-1.44;70.70;99480.50;4990828;28;20070;-74
2021/12/23 01:13:26;;;;;;;21.30;12.07;;;;;;;-1.43;70.78;99488.22;4991107;28;20093;-73
2021/12/23 01:16:01;;;;;;;22.98;13.30;;;;;;;-1.49;70.54;99474.50;4990455;28;20088;-74
2021/12/23 01:18:43;;;;;;;20.42;12.18;;;;;;;-1.60;71.37;99470.25;4991116;28;20034;-73
2021/12/23 01:21:17;;;;;;;24.08;12.50;;;;;;;-1.71;71.67;99471.16;4990769;28;20057;-75
2021/12/23 01:23:47;;;;;;;19.83;12.18;;;;;;;-1.79;71.91;99471.22;4990558;28;20553;-74
2021/12/23 01:26:18;;;;;;;19.27;10.35;;;;;;;-1.75;72.59;99481.53;4972543;28;20395;-75
2021/12/23 01:28:44;;;;;;;17.05;11.48;;;;;;;-1.69;71.92;99478.03;4972408;28;20039;-75
2021/12/23 01:31:10;;;;;;;18.67;10.75;;;;;;;-1.65;71.58;99473.72;4990533;28;20415;-74
2021/12/23 01:33:35;;;;;;;16.77;11.70;;;;;;;-1.62;71.85;99474.56;4990500;28;20060;-75
2021/12/23 01:36:00;;;;;;;19.40;11.23;;;;;;;-1.60;71.70;99472.84;4972182;28;20105;-72
2021/12/23 01:38:26;;;;;;;18.52;10.93;;;;;;;-1.66;71.35;99470.28;4991135;28;20486;-74
2021/12/23 01:40:51;;;;;;;21.08;11.70;;;;;;;-1.67;71.44;99468.56;4991541;28;20065;-73
2021/12/23 01:43:19;;;;;;;22.08;12.70;;;;;;;-1.79;71.25;99464.31;4992842;28;20046;-75
2021/12/23 01:45:46;;;;;;;21.33;13.45;;;;;;;-1.98;72.90;99457.50;4993902;28;20084;-74
2021/12/23 01:48:13;;;;;;;29.88;14.00;;;;;;;-2.14;72.93;99441.22;4990690;28;20049;-75
2021/12/23 01:50:39;;;;;;;24.23;12.68;;;;;;;-2.19;73.35;99448.09;4990578;28;20046;-75
2021/12/23 01:53:06;;;;;;;21.15;12.48;;;;;;;-2.21;73.93;99450.69;4990401;28;20045;-75
2021/12/23 01:55:31;;;;;;;19.83;12.07;;;;;;;-2.20;74.11;99459.28;4989792;28;20038;-75
2021/12/23 01:57:57;;;;;;;17.80;11.13;;;;;;;-2.14;73.18;99464.44;4990740;28;20454;-75
2021/12/23 02:00:26;;;;;;;16.95;10.77;;;;;;;-2.07;73.37;99453.22;4990060;28;20117;-72
2021/12/23 02:02:52;;;;;;;19.85;10.73;;;;;;;-1.97;72.40;99451.44;4952265;28;20144;-75
2021/12/23 02:05:18;;;;;;;13.48;8.90;;;;;;;-1.86;72.28;99454.00;4988973;28;20038;-75
2021/12/23 02:07:43;;;;;;;19.23;10.60;;;;;;;-1.80;71.88;99457.41;4972308;28;20088;-75
2021/12/23 02:10:09;;;;;;;16.83;9.52;;;;;;;-1.76;72.10;99473.78;4989817;28;20085;-75
2021/12/23 02:12:35;;;;;;;15.68;10.07;;;;;;;-1.69;71.18;99459.09;4990209;28;20077;-74
2021/12/23 02:15:01;;;;;;;21.13;11.98;;;;;;;-1.65;71.61;99447.88;4989589;28;20074;-76
2021/12/23 02:17:26;;;;;;;15.02;10.98;;;;;;;-1.70;71.84;99455.63;4988970;28;20066;-75
2021/12/23 02:19:52;;;;;;;18.45;11.90;;;;;;;-1.76;72.44;99458.25;4989699;28;20046;-75
2021/12/23 02:22:18;;;;;;;22.13;13.23;;;;;;;-1.84;72.40;99453.13;4989604;28;20046;-75
2021/12/23 02:24:43;;;;;;;20.52;12.45;;;;;;;-1.92;73.02;99470.38;4989236;28;20502;-74
2021/12/23 02:27:10;;;;;;;22.90;12.93;;;;;;;-1.97;72.84;99457.50;4988234;28;20505;-74
2021/12/23 02:29:35;;;;;;;18.90;12.55;;;;;;;-1.98;73.13;99452.31;4995187;28;20042;-74
2021/12/23 02:32:00;;;;;;;18.27;11.95;;;;;;;-1.96;73.33;99460.94;4986716;28;20049;-75
2021/12/23 02:34:26;;;;;;;16.48;11.68;;;;;;;-1.95;73.88;99453.16;5005228;28;20030;-74
2021/12/23 02:36:53;;;;;;;17.35;10.32;;;;;;;-1.86;73.67;99444.53;4991555;28;20035;-73
2021/12/23 02:39:20;;;;;;;24.65;13.05;;;;;;;-1.83;73.15;99441.06;4988582;28;20038;-75
2021/12/23 02:41:45;;;;;;;21.35;12.50;;;;;;;-1.90;73.08;99439.38;4989902;28;20034;-75
2021/12/23 02:44:13;;;;;;;17.15;10.63;;;;;;;-1.79;73.56;99448.81;4989682;28;20558;-74
2021/12/23 02:46:39;;;;;;;18.17;11.13;;;;;;;-1.69;72.94;99441.88;4988850;28;20034;-74
2021/12/23 02:49:04;;;;;;;19.33;10.98;;;;;;;-1.65;72.13;99438.41;4989788;28;20553;-75
2021/12/23 02:51:30;;;;;;;17.17;10.20;;;;;;;-1.60;71.91;99435.78;4989087;28;20038;-75
2021/12/23 02:53:55;;;;;;;19.35;12.38;;;;;;;-1.64;72.02;99421.16;4988978;28;20081;-74
2021/12/23 02:56:20;;;;;;;29.15;12.27;;;;;;;-1.66;72.09;99426.34;4987833;28;20509;-73
2021/12/23 02:58:46;;;;;;;19.02;10.98;;;;;;;-1.70;72.17;99418.59;4988754;28;20026;-74
2021/12/23 03:01:13;;;;;;;20.17;11.50;;;;;;;-1.70;72.21;99418.59;4988531;28;20045;-73
2021/12/23 03:03:39;;;;;;;17.95;11.55;;;;;;;-1.67;72.32;99428.91;4988728;28;20034;-75
2021/12/23 03:06:05;;;;;;;19.27;10.07;;;;;;;-1.65;71.76;99422.03;4988941;28;20034;-75
2021/12/23 03:08:36;;;;;;;18.83;10.45;;;;;;;-1.60;72.04;99417.69;4988821;28;20034;-75
2021/12/23 03:11:04;;;;;;;18.30;11.80;;;;;;;-1.52;72.22;99431.44;4988908;28;20845;-76
2021/12/23 03:13:30;;;;;;;17.77;11.00;;;;;;;-1.50;72.09;99434.88;4989055;28;20034;-75
2021/12/23 03:15:56;;;;;;;16.92;10.43;;;;;;;-1.47;71.58;99432.25;4988037;28;20044;-76
2021/12/23 03:18:21;;;;;;;21.88;11.90;;;;;;;-1.44;72.22;99429.66;4988598;28;20034;-76
2021/12/23 03:20:47;;;;;;;14.98;10.85;;;;;;;-1.43;72.07;99433.09;4988668;28;20035;-75
2021/12/23 03:23:12;;;;;;;19.13;12.15;;;;;;;-1.39;71.88;99439.97;4989772;28;20429;-76
2021/12/23 03:25:38;;;;;;;18.95;11.52;;;;;;;-1.42;72.20;99422.75;4971141;28;20038;-76
2021/12/23 03:28:03;;;;;;;18.38;11.55;;;;;;;-1.47;72.57;99410.72;4990337;28;20089;-76
2021/12/23 03:30:29;;;;;;;18.38;11.50;;;;;;;-1.55;72.87;99405.59;4990954;28;20507;-77
2021/12/23 03:32:55;;;;;;;19.13;11.70;;;;;;;-1.62;73.57;99406.53;4978812;28;20045;-75
2021/12/23 03:35:21;;;;;;;17.08;10.63;;;;;;;-1.61;73.16;99401.31;5000925;28;20045;-76
2021/12/23 03:37:46;;;;;;;20.30;12.75;;;;;;;-1.63;73.21;99397.88;4990115;28;20038;-76
2021/12/23 03:40:12;;;;;;;23.50;12.10;;;;;;;-1.66;73.54;99395.31;4989050;28;20042;-76
2021/12/23 03:42:39;;;;;;;20.42;11.70;;;;;;;-1.63;73.51;99395.28;4988953;28;20117;-74
2021/12/23 03:45:07;;;;;;;21.08;11.23;;;;;;;-1.68;73.89;99378.97;4988543;28;20038;-76
2021/12/23 03:47:33;;;;;;;16.13;11.68;;;;;;;-1.69;73.77;99387.59;4989503;28;20113;-76
2021/12/23 03:49:59;;;;;;;18.27;12.65;;;;;;;-1.65;73.56;99389.31;4990802;28;20049;-76
2021/12/23 03:52:25;;;;;;;15.63;10.68;;;;;;;-1.56;73.66;99389.22;4994078;28;20042;-74
2021/12/23 03:54:51;;;;;;;21.75;10.75;;;;;;;-1.45;72.88;99390.88;4994945;28;20069;-75
2021/12/23 03:57:16;;;;;;;17.73;11.20;;;;;;;-1.44;72.49;99392.59;4981138;28;20030;-76
2021/12/23 03:59:41;;;;;;;17.20;11.07;;;;;;;-1.47;72.48;99382.28;4996612;28;20030;-77
2021/12/23 04:02:07;;;;;;;17.77;10.48;;;;;;;-1.55;72.95;99370.28;4983850;28;20101;-75
2021/12/23 04:04:32;;;;;;;19.02;11.02;;;;;;;-1.48;72.92;99365.91;5000025;28;20034;-75
2021/12/23 04:06:58;;;;;;;16.52;9.63;;;;;;;-1.47;73.17;99356.44;4992661;28;20034;-75
2021/12/23 04:09:23;;;;;;;21.73;11.40;;;;;;;-1.56;73.74;99337.53;4992025;28;20054;-76
2021/12/23 04:11:49;;;;;;;19.65;10.13;;;;;;;-1.56;74.21;99334.94;4992068;28;20034;-76
2021/12/23 04:14:14;;;;;;;26.63;14.05;;;;;;;-1.62;73.91;99326.41;4992144;28;20053;-76
2021/12/23 04:16:39;;;;;;;15.20;11.25;;;;;;;-1.59;74.41;99324.63;4974308;28;20525;-76
2021/12/23 04:19:08;;;;;;;16.75;11.95;;;;;;;-1.63;74.59;99328.09;4992648;28;20061;-76
2021/12/23 04:21:33;;;;;;;25.08;13.40;;;;;;;-1.62;74.72;99324.66;4974472;28;20047;-76
2021/12/23 04:23:59;;;;;;;20.00;12.05;;;;;;;-1.64;74.34;99323.81;4991857;28;20406;-75
2021/12/23 04:26:24;;;;;;;17.02;10.50;;;;;;;-1.64;74.96;99299.72;4991341;28;20046;-73
2021/12/23 04:28:51;;;;;;;23.30;12.43;;;;;;;-1.64;75.23;99286.78;4993175;28;20397;-73
2021/12/23 04:31:19;;;;;;;19.58;12.40;;;;;;;-1.55;74.66;99274.66;4992558;28;20030;-73
2021/12/23 04:33:47;;;;;;;19.40;12.38;;;;;;;-1.42;74.36;99290.91;4991591;28;20035;-73
2021/12/23 04:36:13;;;;;;;20.88;13.68;;;;;;;-1.29;73.06;99294.22;4989902;28;20084;-75
2021/12/23 04:38:40;;;;;;;25.58;15.35;;;;;;;-1.15;72.75;99287.19;4977336;28;20384;-75
2021/12/23 04:41:07;;;;;;;28.98;14.80;;;;;;;-1.17;72.44;99268.25;4972880;28;20038;-73
2021/12/23 04:43:32;;;;;;;17.88;12.80;;;;;;;-1.13;72.72;99264.75;4972582;28;20514;-73
2021/12/23 04:45:57;;;;;;;21.02;12.85;;;;;;;-1.05;72.83;99267.28;4971692;28;20055;-75
2021/12/23 04:48:23;;;;;;;18.45;11.75;;;;;;;-0.99;72.55;99269.78;4971954;28;20088;-74
2021/12/23 04:50:48;;;;;;;30.73;16.75;;;;;;;-0.97;71.93;99262.00;4955694;28;20031;-75
2021/12/23 04:53:13;;;;;;;20.73;11.20;;;;;;;-1.03;72.10;99269.81;4974078;28;20406;-75
2021/12/23 04:55:39;;;;;;;25.02;16.42;;;;;;;-1.09;72.08;99268.16;4994165;28;20453;-73
2021/12/23 04:58:04;;;;;;;21.98;13.75;;;;;;;-1.10;72.20;99269.91;4996642;28;20126;-74
2021/12/23 05:00:30;;;;;;;23.88;13.43;;;;;;;-1.11;72.11;99275.97;4991946;28;20061;-73
2021/12/23 05:02:55;;;;;;;24.33;12.80;;;;;;;-1.11;72.53;99275.97;4993128;28;20054;-74
2021/12/23 05:05:20;;;;;;;22.45;14.07;;;;;;;-1.06;72.46;99275.03;4991345;28;20042;-74
2021/12/23 05:07:48;;;;;;;22.58;12.73;;;;;;;-1.05;72.52;99261.25;4991954;28;20061;-75
2021/12/23 05:10:14;;;;;;;22.92;12.85;;;;;;;-1.08;72.54;99252.63;4992693;28;20117;-74
2021/12/23 05:12:45;;;;;;;23.38;14.48;;;;;;;-1.19;72.89;99263.97;4991556;28;20050;-73
2021/12/23 05:15:12;;;;;;;21.17;12.52;;;;;;;-1.18;73.48;99260.50;4994831;28;20034;-75
2021/12/23 05:17:37;;;;;;;20.30;12.93;;;;;;;-1.13;73.33;99259.59;4993935;28;20034;-74
2021/12/23 05:20:05;;;;;;;22.17;14.32;;;;;;;-1.05;73.36;99261.25;4976653;28;20041;-76
2021/12/23 05:22:31;;;;;;;20.77;13.68;;;;;;;-1.00;73.20;99259.47;4991769;28;20442;-75
2021/12/23 05:24:56;;;;;;;21.00;12.73;;;;;;;-0.97;72.89;99249.06;4999028;28;20038;-74
2021/12/23 05:27:21;;;;;;;22.42;12.45;;;;;;;-0.94;72.52;99244.72;4978462;28;20035;-75
2021/12/23 05:29:47;;;;;;;23.60;14.95;;;;;;;-0.97;73.13;99233.56;4995589;28;20042;-75
2021/12/23 05:32:13;;;;;;;22.60;15.35;;;;;;;-0.92;73.01;99232.63;4992784;28;20030;-73
2021/12/23 05:34:38;;;;;;;23.83;14.85;;;;;;;-0.95;72.58;99227.47;4990297;28;20040;-74
2021/12/23 05:37:04;;;;;;;19.73;12.05;;;;;;;-0.94;72.57;99238.69;4989634;28;20026;-73
2021/12/23 05:39:29;;;;;;;20.15;13.27;;;;;;;-0.88;72.19;99226.53;4990146;28;20101;-75
2021/12/23 05:41:54;;;;;;;23.30;14.45;;;;;;;-0.85;72.12;99237.72;4989208;28;20038;-75
2021/12/23 05:44:20;;;;;;;24.13;14.57;;;;;;;-0.86;72.43;99223.94;4990174;28;20035;-74
2021/12/23 05:46:45;;;;;;;24.13;15.23;;;;;;;-0.84;72.90;99235.09;4990286;28;20120;-75
2021/12/23 05:49:10;;;;;;;23.17;13.02;;;;;;;-0.73;73.00;99243.63;4990076;28;20038;-75
2021/12/23 05:51:36;;;;;;;25.38;14.05;;;;;;;-0.64;72.12;99242.63;4990517;28;20049;-74
2021/12/23 05:54:01;;;;;;;23.50;13.73;;;;;;;-0.59;72.07;99220.16;4990547;28;20141;-75
2021/12/23 05:56:27;;;;;;;24.40;13.98;;;;;;;-0.61;72.34;99213.28;4989129;28;20442;-74
2021/12/23 05:58:52;;;;;;;21.80;13.27;;;;;;;-0.66;72.19;99203.00;4990021;28;20027;-76
2021/12/23 06:01:18;;;;;;;21.80;12.75;;;;;;;-0.60;72.13;99208.06;4989872;28;20089;-75
2021/12/23 06:03:46;;;;;;;25.92;14.98;;;;;;;-0.58;72.16;99208.06;4990602;28;20038;-75
2021/12/23 06:06:13;;;;;;;19.77;11.95;;;;;;;-0.46;71.54;99210.47;4973634;28;20048;-75
2021/12/23 06:08:39;;;;;;;24.90;14.18;;;;;;;-0.42;69.91;99196.59;4992492;28;20042;-75
2021/12/23 06:11:05;;;;;;;22.73;13.63;;;;;;;-0.36;70.53;99204.28;4995184;28;20086;-75
2021/12/23 06:13:30;;;;;;;20.23;11.95;;;;;;;-0.31;70.44;99188.69;4991621;28;20110;-75
2021/12/23 06:15:55;;;;;;;24.98;12.43;;;;;;;-0.23;69.22;99192.00;4957837;28;20042;-75
2021/12/23 06:18:21;;;;;;;17.08;12.18;;;;;;;-0.11;67.07;99191.81;4990732;28;20108;-75
2021/12/23 06:20:46;;;;;;;17.00;9.73;;;;;;;0.03;65.35;99185.59;4990947;28;20044;-75
2021/12/23 06:23:12;;;;;;;18.55;12.43;;;;;;;0.13;65.74;99181.94;4990571;28;20039;-75
2021/12/23 06:25:37;;;;;;;20.85;12.07;;;;;;;0.19;65.68;99179.25;4972602;28;20510;-76
2021/12/23 06:28:03;;;;;;;19.25;11.15;;;;;;;0.28;64.44;99173.91;4990379;28;20382;-76
2021/12/23 06:30:28;;;;;;;19.77;12.13;;;;;;;0.36;64.32;99173.78;4972246;28;20058;-75
2021/12/23 06:32:55;;;;;;;20.48;12.20;;;;;;;0.47;62.98;99164.06;4990087;28;20054;-76
2021/12/23 06:35:24;;;;;;;19.27;10.88;;;;;;;0.56;61.26;99165.63;4996745;28;20037;-77
2021/12/23 06:37:50;;;;;;;18.48;12.60;;;;;;;0.66;63.04;99155.94;4999497;28;20035;-75
2021/12/23 06:40:16;;;;;;;17.92;11.00;;;;;;;0.73;59.34;99157.53;4995466;28;20040;-75
2021/12/23 06:42:41;;;;;;;18.42;10.13;;;;;;;0.86;57.99;99151.19;4992647;28;20037;-75
2021/12/23 06:45:07;;;;;;;19.10;9.30;;;;;;;1.05;56.57;99165.50;4972726;28;20038;-76
2021/12/23 06:47:34;;;;;;;22.83;11.73;;;;;;;1.26;54.65;99165.97;4990205;28;20117;-75
2021/12/23 06:50:00;;;;;;;16.65;9.85;;;;;;;1.47;52.89;99164.63;4989307;28;20042;-74
2021/12/23 06:52:25;;;;;;;18.85;10.38;;;;;;;1.63;52.96;99166.00;4989597;28;20122;-74
2021/12/23 06:54:53;;;;;;;18.27;10.57;;;;;;;1.74;53.25;99163.16;4971495;28;20034;-76
2021/12/23 06:57:22;;;;;;;18.60;10.90;;;;;;;1.85;52.80;99166.34;4989442;28;20037;-76
2021/12/23 06:59:47;;;;;;;21.00;10.30;;;;;;;1.95;50.85;99167.00;4989129;28;20057;-75
2021/12/23 07:02:13;;;;;;;19.35;11.15;;;;;;;2.05;51.45;99154.63;4989499;28;20502;-76
2021/12/23 07:04:40;;;;;;;26.08;14.38;;;;;;;2.15;50.83;99163.91;4989103;28;20034;-76
2021/12/23 07:07:10;;;;;;;19.35;10.60;;;;;;;2.27;50.29;99175.75;4971875;28;20034;-75
2021/12/23 07:09:44;;;;;;;16.23;8.73;;;;;;;2.45;46.75;99166.59;4989522;28;20042;-76
2021/12/23 07:12:12;;;;;;;15.35;9.30;;;;;;;2.61;48.84;99167.91;4972462;28;20751;-74
2021/12/23 07:14:39;;;;;;;14.68;9.15;;;;;;;2.68;49.05;99177.22;4990434;28;20514;-75
2021/12/23 07:17:07;;;;;;;17.92;9.60;;;;;;;2.71;48.83;99173.72;4996667;28;20030;-76
2021/12/23 07:19:32;;;;;;;17.90;9.32;;;;;;;2.77;47.57;99178.75;4996197;28;20027;-73
2021/12/23 07:21:58;;;;;;;22.60;11.52;;;;;;;2.79;48.95;99177.81;4991953;28;20730;-74
2021/12/23 07:24:23;;;;;;;17.15;9.63;;;;;;;2.85;47.19;99183.75;4989234;28;20043;-77
2021/12/23 07:26:48;;;;;;;14.02;9.70;;;;;;;2.98;47.32;99172.09;4978499;28;20406;-76
2021/12/23 07:29:14;;;;;;;18.77;10.95;;;;;;;3.10;46.74;99163.94;4996255;28;20034;-76
2021/12/23 07:31:39;;;;;;;17.33;10.07;;;;;;;3.17;47.28;99162.00;4997063;28;20034;-76
2021/12/23 07:34:05;;;;;;;16.33;9.90;;;;;;;3.22;46.86;99166.19;5001869;28;20037;-76
2021/12/23 07:36:31;;;;;;;16.95;9.65;;;;;;;3.28;47.23;99174.72;5002003;28;20050;-74
2021/12/23 07:38:57;;;;;;;21.15;11.55;;;;;;;3.30;47.37;99165.97;5005564;28;20037;-74
2021/12/23 07:41:26;;;;;;;17.20;10.48;;;;;;;3.35;47.79;99166.69;4979922;28;20446;-76
2021/12/23 07:43:59;;;;;;;15.68;10.05;;;;;;;3.41;48.35;99158.66;4996422;28;20042;-76
2021/12/23 07:46:27;;;;;;;19.67;11.57;;;;;;;3.43;48.00;99159.47;4996220;28;20035;-75
2021/12/23 07:48:53;;;;;;;16.58;10.60;;;;;;;3.48;48.33;99169.75;4995885;28;20070;-77
2021/12/23 07:51:19;;;;;;;18.38;11.63;;;;;;;3.46;49.80;99170.72;4996153;28;20034;-75
2021/12/23 07:53:45;;;;;;;17.13;9.85;;;;;;;3.47;49.46;99172.41;4996709;28;20061;-76
2021/12/23 07:56:11;;;;;;;18.13;12.15;;;;;;;3.49;49.61;99166.25;4996495;28;20038;-75
2021/12/23 07:58:36;;;;;;;16.95;10.07;;;;;;;3.51;49.21;99167.06;4999073;28;20038;-76
2021/12/23 08:01:01;;;;;;;19.80;10.70;;;;;;;3.50;50.18;99167.13;5000237;28;20060;-76
2021/12/23 08:03:27;;;;;;;19.25;12.20;;;;;;;3.52;50.18;99163.56;5001033;28;20038;-76
2021/12/23 08:05:52;;;;;;;20.85;11.57;;;;;;;3.58;49.45;99157.31;5001707;28;20482;-76
2021/12/23 08:08:18;;;;;;;22.75;12.80;;;;;;;3.65;50.48;99153.63;5002058;28;20478;-76
2021/12/23 08:10:43;;;;;;;15.95;9.15;;;;;;;3.73;50.06;99161.19;4996326;28;20043;-77
2021/12/23 08:13:09;;;;;;;17.85;10.30;;;;;;;3.75;50.59;99162.84;4996020;28;20038;-74
2021/12/23 08:15:34;;;;;;;17.45;10.00;;;;;;;3.81;50.33;99156.56;4994551;28;20397;-76
2021/12/23 08:18:00;;;;;;;15.32;10.27;;;;;;;3.84;50.60;99151.28;4996394;28;20124;-77
2021/12/23 08:20:25;;;;;;;15.98;11.02;;;;;;;3.89;51.49;99149.38;4995021;28;20113;-75
2021/12/23 08:22:51;;;;;;;14.82;9.77;;;;;;;3.88;51.95;99143.28;4996519;28;20038;-76
2021/12/23 08:25:16;;;;;;;17.10;10.45;;;;;;;3.90;51.91;99145.00;4994100;28;20375;-75
2021/12/23 08:27:43;;;;;;;19.13;10.23;;;;;;;3.91;52.01;99144.94;4977652;28;20132;-76
2021/12/23 08:30:11;;;;;;;19.38;11.70;;;;;;;3.94;53.18;99141.38;4995195;28;20042;-76
2021/12/23 08:32:38;;;;;;;19.63;9.70;;;;;;;3.94;53.20;99139.66;4992978;28;20494;-75
2021/12/23 08:35:04;;;;;;;16.90;10.60;;;;;;;3.95;53.33;99137.88;4992908;28;20042;-74
2021/12/23 08:37:30;;;;;;;16.05;8.82;;;;;;;3.93;54.09;99135.31;4989805;28;20120;-74
2021/12/23 08:39:56;;;;;;;24.60;11.10;;;;;;;3.97;54.07;99131.72;4989734;28;20177;-75
2021/12/23 08:42:21;;;;;;;16.48;10.40;;;;;;;4.04;54.28;99138.44;4989866;28;20039;-77
2021/12/23 08:44:46;;;;;;;19.17;9.55;;;;;;;4.13;54.68;99139.03;4989471;28;20026;-75
2021/12/23 08:47:13;;;;;;;15.27;9.68;;;;;;;4.21;54.28;99131.78;4989964;28;20658;-74
2021/12/23 08:49:40;;;;;;;21.75;11.68;;;;;;;4.25;55.02;99131.63;4990076;28;20046;-75
2021/12/23 08:52:06;;;;;;;17.95;11.45;;;;;;;4.34;54.63;99135.69;4989644;28;20038;-74
2021/12/23 08:54:31;;;;;;;17.60;10.35;;;;;;;4.39;54.54;99138.16;4989612;28;20038;-76
2021/12/23 08:56:57;;;;;;;18.30;11.25;;;;;;;4.47;55.53;99128.28;4981195;28;20434;-75
2021/12/23 08:59:22;;;;;;;16.00;9.63;;;;;;;4.54;55.10;99124.56;4988546;28;20112;-74
2021/12/23 09:01:48;;;;;;;20.92;11.00;;;;;;;4.59;55.04;99124.41;4969456;28;20045;-75
2021/12/23 09:04:13;;;;;;;22.13;10.82;;;;;;;4.64;55.56;99123.31;4986534;28;20537;-74
2021/12/23 09:06:39;;;;;;;19.83;10.07;;;;;;;4.70;54.76;99120.50;4989828;28;20031;-74
2021/12/23 09:09:07;;;;;;;15.38;9.60;;;;;;;4.77;54.82;99115.91;4988979;28;20043;-75
2021/12/23 09:11:32;;;;;;;19.42;10.00;;;;;;;4.83;54.69;99117.47;4989646;28;20137;-75
2021/12/23 09:13:58;;;;;;;14.13;9.85;;;;;;;4.89;55.03;99107.63;4972259;28;20106;-76
2021/12/23 09:16:24;;;;;;;17.23;10.57;;;;;;;4.89;55.06;99097.16;4973183;28;20118;-75
2021/12/23 09:18:49;;;;;;;16.95;9.85;;;;;;;4.91;54.99;99091.91;4993435;28;20025;-75
2021/12/23 09:21:15;;;;;;;17.90;9.95;;;;;;;4.99;54.91;99086.38;4996024;28;20090;-76
2021/12/23 09:23:40;;;;;;;18.83;9.00;;;;;;;5.05;55.09;99089.63;4997426;28;20093;-74
2021/12/23 09:26:10;;;;;;;16.02;10.70;;;;;;;5.12;54.68;99093.72;4994667;28;20049;-75
2021/12/23 09:34:02;;;;;;;17.15;8.38;;;;;;;5.41;55.09;99076.03;4988947;28;20061;-75
2021/12/23 09:36:27;;;;;;;14.73;9.65;;;;;;;5.55;55.11;99075.50;4988206;28;20073;-75
2021/12/23 09:38:53;;;;;;;17.15;8.52;;;;;;;5.71;54.98;99079.19;4988192;28;20109;-76
2021/12/23 09:41:21;;;;;;;19.20;11.02;;;;;;;5.85;54.96;99075.16;4971345;28;20053;-76
2021/12/23 09:43:48;;;;;;;13.05;9.15;;;;;;;5.85;55.59;99073.38;4989129;28;20172;-75
2021/12/23 09:46:18;;;;;;;15.40;9.63;;;;;;;5.88;55.76;99067.16;4987615;28;20300;-74
2021/12/23 09:48:46;;;;;;;19.20;11.25;;;;;;;5.84;56.64;99068.22;4988339;28;20050;-75
2021/12/23 09:51:14;;;;;;;15.55;9.93;;;;;;;5.84;57.01;99066.47;4989383;28;20096;-76
2021/12/23 09:53:42;;;;;;;16.75;9.77;;;;;;;5.89;57.34;99067.13;4988908;28;20038;-76
2021/12/23 09:56:07;;;;;;;19.48;11.65;;;;;;;5.88;57.69;99075.91;4977218;28;20035;-74
2021/12/23 09:58:33;;;;;;;17.60;10.80;;;;;;;5.89;58.13;99072.34;4988533;28;20053;-73
2021/12/23 10:00:59;;;;;;;15.95;10.30;;;;;;;5.93;58.53;99071.31;4988443;28;20133;-72
2021/12/23 10:03:26;;;;;;;15.32;10.10;;;;;;;5.96;58.97;99078.22;4988979;28;20030;-76
2021/12/23 10:05:52;;;;;;;19.08;10.07;;;;;;;6.04;58.98;99070.03;4970551;28;20031;-74
2021/12/23 10:08:18;;;;;;;18.90;9.82;;;;;;;6.10;59.30;99072.38;4988855;28;20035;-74
2021/12/23 10:10:50;;;;;;;16.08;10.55;;;;;;;6.16;59.36;99064.28;4988474;28;20038;-77
2021/12/23 10:27:00;;;;;;;19.10;11.45;;;;;;;6.23;59.40;99081.44;4988555;28;20031;-75
2021/12/23 10:38:40;;;;;;;17.02;11.05;;;;;;;6.45;60.98;99015.91;4955389;28;20086;-74
2021/12/23 10:41:28;;;;;;;16.38;10.88;;;;;;;6.43;61.16;99018.56;4970849;28;20042;-74
2021/12/23 10:44:00;;;;;;;18.83;12.20;;;;;;;6.43;61.57;99013.34;4987313;28;20124;-74
2021/12/23 10:46:35;;;;;;;16.70;11.32;;;;;;;6.45;62.06;99002.81;4986939;28;20026;-73
2021/12/23 10:52:03;;;;;;;;;;;;;;;6.52;62.09;98987.66;4988729;28;20030;-76
2021/12/23 11:00:27;;;;;;;18.77;12.07;;;;;;;6.64;62.39;98974.00;4982794;28;20129;-77
2021/12/23 11:03:29;;;;;;;16.30;11.43;;;;;;;6.69;62.54;98968.56;4987938;28;20034;-76
2021/12/23 11:27:34;;;;;;;17.17;11.85;;;;;;;6.88;63.07;98927.47;4990719;28;20081;-75
2021/12/23 11:38:47;;;;;;;19.35;11.45;;;;;;;7.06;63.52;98908.25;4994730;28;20694;-75
2021/12/23 11:43:55;;;;;;;20.15;11.75;;;;;;;7.15;63.55;98903.47;5000531;28;20690;-75
2021/12/23 11:47:27;;;;;;;17.73;11.55;;;;;;;7.22;63.47;98913.56;4994474;28;20212;-79
2021/12/23 11:49:53;;;;;;;16.75;11.35;;;;;;;7.26;63.35;98909.88;4997113;28;20572;-74
2021/12/23 11:52:18;;;;;;;14.93;10.23;;;;;;;7.30;63.62;98907.94;4997902;28;20034;-75
2021/12/23 11:54:46;;;;;;;22.13;12.10;;;;;;;7.37;63.36;98908.50;4998752;28;20226;-75
2021/12/23 11:57:22;;;;;;;18.85;11.43;;;;;;;7.40;63.80;98901.31;4995681;28;20105;-74
2021/12/23 12:00:37;;;;;;;17.88;11.85;;;;;;;7.46;63.67;98887.06;4995800;28;20030;-75
2021/12/23 12:03:02;;;;;;;16.42;11.60;;;;;;;7.56;64.06;98879.56;4996070;28;20030;-74
2021/12/23 12:05:28;;;;;;;17.00;11.32;;;;;;;7.59;63.98;98875.00;4993874;28;20376;-75
2021/12/23 12:08:17;;;;;;;17.55;12.38;;;;;;;7.64;63.51;98865.13;4997477;28;20034;-75
2021/12/23 12:10:44;;;;;;;18.95;11.77;;;;;;;7.67;63.54;98870.19;5002532;28;20050;-76
2021/12/23 12:13:12;;;;;;;23.30;13.50;;;;;;;7.69;63.39;98857.84;4998849;28;20089;-76
2021/12/23 12:15:38;;;;;;;18.83;12.18;;;;;;;7.71;63.77;98868.28;4977072;28;20032;-75
2021/12/23 12:18:09;;;;;;;17.65;11.20;;;;;;;7.72;63.21;98862.09;4996960;28;20058;-75
2021/12/23 12:20:46;;;;;;;17.00;12.38;;;;;;;7.73;64.01;98869.91;4997170;28;20038;-75
2021/12/23 12:23:30;;;;;;;17.08;11.55;;;;;;;7.80;63.29;98862.56;4976907;28;20038;-75
2021/12/23 12:25:59;;;;;;;20.63;13.38;;;;;;;7.87;63.46;98860.44;4974325;28;20061;-76
2021/12/23 12:28:46;;;;;;;19.77;12.65;;;;;;;7.88;63.48;98855.13;4976063;28;20026;-76
2021/12/23 12:31:14;;;;;;;15.38;10.55;;;;;;;7.94;63.97;98848.69;4991422;28;20038;-74
2021/12/23 12:33:45;;;;;;;16.30;12.00;;;;;;;8.01;63.63;98838.72;4991105;28;20034;-75
2021/12/23 12:36:16;;;;;;;17.27;11.75;;;;;;;8.01;64.00;98834.31;4991525;28;20045;-76
2021/12/23 12:38:51;;;;;;;23.02;12.00;;;;;;;8.03;64.00;98836.84;4991146;28;20030;-77